createdAt,value
2017-12-09T00:00:21.131Z,80.00
2017-12-09T00:02:48.642Z,79.60
2017-12-09T00:05:16.712Z,79.90
2017-12-09T00:07:45.002Z,80.50
2017-12-09T00:10:13.265Z,80.30
2017-12-09T00:12:40.774Z,80.10
2017-12-09T00:15:08.298Z,79.90
2017-12-09T00:17:35.778Z,80.10
2017-12-09T00:20:03.252Z,80.00
2017-12-09T00:22:41.572Z,79.60
2017-12-09T00:25:09.105Z,80.30
2017-12-09T00:27:40.268Z,80.60
2017-12-09T00:30:07.765Z,80.60
2017-12-09T00:32:35.233Z,80.40
2017-12-09T00:35:02.727Z,80.30
2017-12-09T00:37:30.213Z,80.60
2017-12-09T00:39:57.721Z,80.70
2017-12-09T00:42:25.208Z,80.70
2017-12-09T00:44:52.676Z,80.20
2017-12-09T00:47:20.176Z,80.60
2017-12-09T00:49:48.412Z,80.70
2017-12-09T00:52:15.933Z,80.50
2017-12-09T00:54:43.426Z,80.60
2017-12-09T00:57:10.903Z,80.70
2017-12-09T00:59:38.420Z,81.10
2017-12-09T01:02:05.896Z,81.00
2017-12-09T01:04:33.408Z,80.90
2017-12-09T01:07:01.642Z,81.20
2017-12-09T01:09:29.380Z,81.00
2017-12-09T01:11:56.959Z,81.50
2017-12-09T01:14:24.477Z,80.60
2017-12-09T01:17:03.632Z,80.70
2017-12-09T01:19:31.107Z,81.10
2017-12-09T01:21:58.602Z,81.10
2017-12-09T01:24:26.863Z,80.90
2017-12-09T01:26:54.364Z,80.50
2017-12-09T01:29:21.855Z,80.40
2017-12-09T01:31:49.363Z,81.00
2017-12-09T01:34:16.867Z,81.10
2017-12-09T01:36:44.362Z,81.30
2017-12-09T01:39:12.830Z,81.50
2017-12-09T01:41:40.352Z,81.30
2017-12-09T01:44:07.851Z,81.50
2017-12-09T01:46:35.330Z,81.70
2017-12-09T01:49:02.919Z,81.50
2017-12-09T01:51:30.425Z,81.30
2017-12-09T01:53:58.668Z,81.40
2017-12-09T01:56:26.158Z,81.30
2017-12-09T01:58:54.406Z,80.90
2017-12-09T02:01:22.661Z,81.40
2017-12-09T02:03:50.128Z,80.90
2017-12-09T02:06:17.615Z,80.70
2017-12-09T02:08:45.082Z,80.10
2017-12-09T02:11:13.397Z,80.80
2017-12-09T02:13:40.891Z,80.50
2017-12-09T02:16:08.372Z,80.30
2017-12-09T02:18:35.877Z,80.00
2017-12-09T02:21:03.355Z,79.00
2017-12-09T02:23:32.029Z,79.50
2017-12-09T02:26:00.460Z,79.40
2017-12-09T02:28:29.184Z,79.10
2017-12-09T02:30:58.544Z,79.10
2017-12-09T02:33:27.648Z,80.00
2017-12-09T02:35:57.155Z,79.90
2017-12-09T02:38:24.784Z,80.40
2017-12-09T02:40:52.358Z,80.20
2017-12-09T02:43:21.526Z,81.20
2017-12-09T02:45:49.391Z,80.60
2017-12-09T02:48:22.915Z,80.50
2017-12-09T02:50:50.558Z,80.30
2017-12-09T02:53:18.634Z,80.80
2017-12-09T02:55:46.849Z,79.90
2017-12-09T02:58:15.128Z,80.50
2017-12-09T03:00:43.983Z,80.60
2017-12-09T03:03:13.101Z,81.20
2017-12-09T03:05:43.367Z,81.70
2017-12-09T03:08:12.103Z,81.60
2017-12-09T03:10:39.638Z,80.70
2017-12-09T03:13:07.214Z,80.20
2017-12-09T03:15:35.045Z,81.00
2017-12-09T03:18:03.520Z,81.30
2017-12-09T03:20:31.069Z,81.70
2017-12-09T03:22:58.611Z,81.20
2017-12-09T03:25:27.342Z,81.30
2017-12-09T03:27:54.942Z,81.40
2017-12-09T03:30:22.448Z,81.20
2017-12-09T03:32:50.848Z,81.20
2017-12-09T03:35:20.131Z,81.30
2017-12-09T03:37:48.470Z,81.40
2017-12-09T03:40:16.031Z,81.90
2017-12-09T03:42:43.582Z,81.40
2017-12-09T03:45:12.840Z,81.30
2017-12-09T03:47:40.831Z,81.60
2017-12-09T03:50:08.336Z,81.30
2017-12-09T03:52:35.865Z,81.60
2017-12-09T03:55:03.396Z,81.60
2017-12-09T03:57:34.874Z,81.70
2017-12-09T04:00:02.415Z,81.40
2017-12-09T04:02:29.934Z,80.80
2017-12-09T04:04:57.532Z,81.20
2017-12-09T04:07:25.143Z,81.30
2017-12-09T04:09:52.665Z,80.70
2017-12-09T04:12:20.734Z,81.40
2017-12-09T04:14:48.478Z,80.40
2017-12-09T04:17:16.782Z,81.00
2017-12-09T04:19:44.282Z,80.10
2017-12-09T04:22:11.793Z,80.70
2017-12-09T04:24:39.392Z,80.50
2017-12-09T04:27:06.946Z,80.70
2017-12-09T04:29:34.540Z,80.60
2017-12-09T04:32:02.037Z,81.70
2017-12-09T04:34:29.607Z,80.70
2017-12-09T04:36:57.108Z,81.00
2017-12-09T04:39:24.643Z,80.90
2017-12-09T04:41:52.268Z,81.20
2017-12-09T04:44:19.725Z,82.00
2017-12-09T04:46:47.250Z,81.40
2017-12-09T04:49:14.778Z,81.40
2017-12-09T04:51:42.339Z,81.60
2017-12-09T04:54:09.871Z,81.70
2017-12-09T04:56:37.397Z,81.70
2017-12-09T04:59:04.996Z,82.00
2017-12-09T05:01:33.401Z,81.50
2017-12-09T05:04:01.077Z,81.60
2017-12-09T05:06:30.934Z,81.90
2017-12-09T05:09:00.123Z,81.70
2017-12-09T05:11:27.713Z,81.60
2017-12-09T05:13:55.498Z,81.40
2017-12-09T05:16:23.048Z,81.60
2017-12-09T05:18:50.538Z,81.30
2017-12-09T05:21:18.092Z,81.30
2017-12-09T05:23:46.030Z,81.30
2017-12-09T05:26:13.516Z,80.90
2017-12-09T05:28:41.026Z,81.20
2017-12-09T05:31:08.530Z,81.20
2017-12-09T05:33:36.045Z,81.10
2017-12-09T05:36:04.452Z,81.00
2017-12-09T05:38:32.061Z,81.20
2017-12-09T05:41:00.332Z,81.20
2017-12-09T05:43:28.617Z,81.10
2017-12-09T05:45:56.117Z,80.90
2017-12-09T05:48:23.657Z,81.00
2017-12-09T05:50:51.184Z,81.10
2017-12-09T05:53:18.760Z,80.60
2017-12-09T05:55:46.227Z,81.20
2017-12-09T05:58:13.714Z,81.30
2017-12-09T06:00:41.217Z,80.60
2017-12-09T06:03:09.470Z,81.40
2017-12-09T06:05:36.968Z,81.30
2017-12-09T06:08:04.476Z,81.40
2017-12-09T06:10:31.979Z,81.40
2017-12-09T06:12:59.490Z,81.10
2017-12-09T06:15:26.987Z,81.70
2017-12-09T06:17:54.485Z,81.70
2017-12-09T06:20:22.767Z,81.90
2017-12-09T06:22:50.297Z,81.90
2017-12-09T06:25:17.796Z,82.00
2017-12-09T06:27:45.335Z,81.90
2017-12-09T06:30:12.831Z,82.20
2017-12-09T06:32:40.814Z,81.80
2017-12-09T06:35:09.103Z,82.30
2017-12-09T06:37:36.602Z,82.30
2017-12-09T06:40:04.111Z,82.50
2017-12-09T06:42:32.363Z,82.70
2017-12-09T06:44:59.859Z,81.60
2017-12-09T06:47:27.346Z,82.40
2017-12-09T06:49:54.804Z,82.20
2017-12-09T06:52:22.313Z,82.20
2017-12-09T06:54:50.546Z,81.70
2017-12-09T06:57:18.041Z,81.80
2017-12-09T06:59:46.286Z,81.70
2017-12-09T07:02:13.787Z,81.70
2017-12-09T07:04:41.285Z,81.60
2017-12-09T07:07:08.763Z,81.80
2017-12-09T07:09:36.232Z,81.80
2017-12-09T07:12:03.721Z,81.90
2017-12-09T07:14:31.189Z,81.70
2017-12-09T07:16:58.649Z,81.90
2017-12-09T07:19:26.139Z,81.90
2017-12-09T07:21:53.606Z,82.00
2017-12-09T07:24:21.092Z,82.00
2017-12-09T07:26:48.584Z,81.90
2017-12-09T07:29:16.052Z,81.70
2017-12-09T07:31:43.538Z,81.10
2017-12-09T07:34:11.039Z,81.40
2017-12-09T07:36:39.224Z,81.40
2017-12-09T07:39:06.707Z,81.30
2017-12-09T07:41:34.196Z,80.80
2017-12-09T07:44:01.667Z,81.60
2017-12-09T07:46:29.894Z,81.80
2017-12-09T07:48:57.390Z,81.80
2017-12-09T07:51:24.856Z,81.80
2017-12-09T07:53:53.097Z,81.90
2017-12-09T07:56:20.619Z,81.70
2017-12-09T07:58:48.090Z,81.80
2017-12-09T08:01:15.574Z,81.50
2017-12-09T08:03:43.057Z,82.00
2017-12-09T08:06:10.525Z,81.80
2017-12-09T08:08:38.001Z,82.00
2017-12-09T08:11:05.504Z,81.70
2017-12-09T08:13:33.005Z,81.60
2017-12-09T08:16:00.501Z,81.50
2017-12-09T08:18:28.031Z,81.40
2017-12-09T08:20:55.503Z,81.40
2017-12-09T08:23:22.973Z,81.20
2017-12-09T08:25:50.484Z,81.20
2017-12-09T08:28:18.754Z,81.30
2017-12-09T08:30:47.263Z,81.00
2017-12-09T08:33:14.800Z,81.00
2017-12-09T08:35:42.367Z,80.80
2017-12-09T08:38:10.608Z,80.80
2017-12-09T08:40:38.084Z,80.20
2017-12-09T08:43:05.563Z,80.70
2017-12-09T08:45:33.058Z,80.30
2017-12-09T08:48:00.558Z,79.60
2017-12-09T08:50:28.096Z,79.40
2017-12-09T08:52:55.512Z,79.30
2017-12-09T08:55:23.036Z,78.80
2017-12-09T08:57:51.362Z,78.50
2017-12-09T09:00:18.880Z,78.70
2017-12-09T09:02:46.373Z,77.50
2017-12-09T09:05:13.862Z,77.50
2017-12-09T09:07:41.370Z,76.00
2017-12-09T09:10:08.851Z,76.10
2017-12-09T09:12:36.342Z,76.80
2017-12-09T09:15:04.586Z,76.60
2017-12-09T09:17:32.067Z,76.50
2017-12-09T09:19:59.591Z,76.20
2017-12-09T09:22:27.061Z,75.70
2017-12-09T09:24:54.516Z,75.90
2017-12-09T09:27:21.986Z,75.50
2017-12-09T09:29:49.483Z,75.70
2017-12-09T09:32:17.688Z,75.80
2017-12-09T09:34:45.175Z,75.30
2017-12-09T09:37:12.646Z,75.50
2017-12-09T09:39:40.312Z,75.20
2017-12-09T09:42:07.838Z,75.00
2017-12-09T09:44:35.392Z,75.30
2017-12-09T09:47:02.879Z,73.70
2017-12-09T09:49:30.359Z,74.10
2017-12-09T09:51:57.848Z,73.90
2017-12-09T09:54:25.346Z,73.50
2017-12-09T09:56:52.857Z,72.80
2017-12-09T09:59:20.396Z,73.10
2017-12-09T10:01:48.642Z,74.10
2017-12-09T10:04:16.126Z,73.90
2017-12-09T10:06:44.365Z,74.00
2017-12-09T10:09:11.869Z,74.00
2017-12-09T10:11:40.104Z,74.30
2017-12-09T10:14:07.595Z,74.20
2017-12-09T10:16:35.866Z,74.50
2017-12-09T10:19:04.080Z,74.20
2017-12-09T10:21:31.556Z,74.10
2017-12-09T10:23:59.065Z,74.40
2017-12-09T10:26:26.587Z,74.40
2017-12-09T10:28:55.604Z,74.10
2017-12-09T10:31:23.102Z,74.00
2017-12-09T10:33:50.639Z,74.40
2017-12-09T10:36:18.135Z,74.40
2017-12-09T10:38:45.611Z,73.90
2017-12-09T10:41:13.099Z,73.70
2017-12-09T10:43:41.346Z,74.40
2017-12-09T10:46:08.877Z,74.10
2017-12-09T10:48:36.395Z,73.50
2017-12-09T10:51:05.260Z,74.00
2017-12-09T10:53:33.521Z,73.40
2017-12-09T10:56:01.050Z,72.50
2017-12-09T10:58:28.588Z,73.10
2017-12-09T11:00:56.095Z,73.50
2017-12-09T11:03:23.613Z,73.00
2017-12-09T11:05:51.132Z,73.50
2017-12-09T11:08:18.624Z,73.10
2017-12-09T11:10:46.114Z,73.40
2017-12-09T11:13:14.505Z,72.50
2017-12-09T11:15:42.026Z,72.70
2017-12-09T11:18:09.524Z,72.90
2017-12-09T11:20:36.987Z,73.00
2017-12-09T11:23:04.455Z,72.70
2017-12-09T11:25:32.297Z,72.20
2017-12-09T11:27:59.764Z,72.80
2017-12-09T11:30:27.268Z,72.80
2017-12-09T11:32:54.734Z,72.50
2017-12-09T11:35:22.224Z,73.10
2017-12-09T11:37:49.686Z,73.00
2017-12-09T11:40:17.174Z,72.90
2017-12-09T11:42:44.667Z,73.30
2017-12-09T11:45:12.147Z,73.20
2017-12-09T11:47:39.654Z,73.30
2017-12-09T11:50:07.902Z,73.20
2017-12-09T11:52:35.386Z,73.20
2017-12-09T11:55:02.871Z,72.90
2017-12-09T11:57:30.369Z,73.20
2017-12-09T11:59:57.929Z,73.00
2017-12-09T12:02:26.200Z,72.80
2017-12-09T12:04:53.681Z,72.50
2017-12-09T12:07:21.179Z,73.30
2017-12-09T12:09:48.692Z,72.60
2017-12-09T12:12:16.218Z,72.90
2017-12-09T12:14:43.727Z,72.80
2017-12-09T12:17:11.658Z,73.20
2017-12-09T12:19:39.434Z,73.50
2017-12-09T12:22:08.507Z,73.80
2017-12-09T12:24:35.985Z,73.60
2017-12-09T12:27:03.510Z,73.50
2017-12-09T12:29:31.099Z,73.70
2017-12-09T12:31:58.602Z,73.70
2017-12-09T12:34:26.114Z,73.80
2017-12-09T12:36:53.644Z,73.60
2017-12-09T12:39:21.110Z,73.90
2017-12-09T12:41:48.588Z,74.20
2017-12-09T12:44:16.064Z,74.10
2017-12-09T12:46:43.543Z,73.70
2017-12-09T12:49:11.090Z,73.80
2017-12-09T12:51:39.351Z,74.40
2017-12-09T12:54:07.595Z,74.40
2017-12-09T12:56:35.085Z,74.40
2017-12-09T12:59:02.847Z,74.30
2017-12-09T13:01:30.364Z,74.10
2017-12-09T13:03:57.849Z,73.60
2017-12-09T13:06:25.312Z,73.30
2017-12-09T13:08:52.852Z,73.60
2017-12-09T13:11:20.336Z,73.60
2017-12-09T13:13:47.971Z,73.20
2017-12-09T13:16:15.510Z,73.10
2017-12-09T13:18:43.147Z,72.60
2017-12-09T13:21:10.810Z,72.00
2017-12-09T13:23:38.302Z,72.10
2017-12-09T13:26:05.814Z,72.40
2017-12-09T13:28:33.343Z,73.00
2017-12-09T13:31:00.858Z,72.70
2017-12-09T13:33:28.338Z,72.30
2017-12-09T13:35:55.801Z,72.80
2017-12-09T13:38:23.295Z,72.90
2017-12-09T13:40:51.535Z,73.00
2017-12-09T13:43:19.016Z,72.90
2017-12-09T13:45:46.522Z,73.20
2017-12-09T13:48:13.975Z,73.20
2017-12-09T13:50:41.475Z,72.60
2017-12-09T13:53:08.972Z,72.60
2017-12-09T13:55:36.462Z,73.40
2017-12-09T13:58:03.945Z,72.80
2017-12-09T14:00:31.460Z,73.20
2017-12-09T14:02:58.934Z,72.90
2017-12-09T14:05:26.432Z,73.50
2017-12-09T14:07:53.918Z,72.90
2017-12-09T14:10:21.403Z,73.10
2017-12-09T14:12:48.877Z,73.10
2017-12-09T14:15:16.364Z,73.40
2017-12-09T14:17:43.850Z,72.90
2017-12-09T14:20:11.348Z,73.50
2017-12-09T14:22:38.826Z,72.60
2017-12-09T14:25:06.306Z,73.20
2017-12-09T14:27:34.570Z,73.10
2017-12-09T14:30:02.874Z,73.20
2017-12-09T14:32:30.375Z,73.20
2017-12-09T14:34:57.846Z,73.10
2017-12-09T14:37:25.317Z,73.00
2017-12-09T14:39:53.562Z,73.10
2017-12-09T14:42:21.035Z,72.90
2017-12-09T14:44:48.519Z,73.00
2017-12-09T14:47:15.999Z,73.00
2017-12-09T14:49:43.511Z,73.40
2017-12-09T14:52:11.016Z,73.10
2017-12-09T14:54:38.506Z,73.10
2017-12-09T14:57:05.968Z,73.10
2017-12-09T14:59:34.221Z,73.10
2017-12-09T15:02:01.715Z,72.40
2017-12-09T15:04:29.206Z,73.00
2017-12-09T15:06:56.682Z,72.80
2017-12-09T15:09:24.404Z,72.40
2017-12-09T15:11:52.672Z,72.60
2017-12-09T15:14:20.133Z,72.30
2017-12-09T15:16:47.651Z,72.20
2017-12-09T15:19:15.142Z,72.00
2017-12-09T15:21:42.636Z,71.80
2017-12-09T15:24:10.147Z,71.90
2017-12-09T15:26:38.418Z,72.50
2017-12-09T15:29:05.905Z,71.90
2017-12-09T15:31:34.168Z,72.70
2017-12-09T15:34:01.736Z,72.10
2017-12-09T15:36:29.178Z,71.80
2017-12-09T15:38:56.645Z,72.30
2017-12-09T15:41:24.167Z,71.90
2017-12-09T15:43:51.670Z,71.40
2017-12-09T15:46:19.970Z,71.80
2017-12-09T15:48:47.488Z,71.00
2017-12-09T15:51:15.002Z,70.90
2017-12-09T15:53:42.491Z,71.30
2017-12-09T15:56:10.043Z,71.20
2017-12-09T15:58:37.540Z,70.40
2017-12-09T16:01:05.784Z,71.50
2017-12-09T16:03:33.267Z,70.90
2017-12-09T16:06:00.768Z,70.80
2017-12-09T16:08:28.255Z,70.60
2017-12-09T16:10:55.979Z,70.50
2017-12-09T16:13:23.694Z,70.30
2017-12-09T16:15:51.217Z,71.10
2017-12-09T16:18:18.695Z,71.30
2017-12-09T16:20:46.244Z,71.70
2017-12-09T16:23:13.749Z,71.40
2017-12-09T16:25:41.237Z,71.50
2017-12-09T16:28:08.778Z,71.50
2017-12-09T16:30:36.268Z,71.80
2017-12-09T16:33:03.763Z,71.30
2017-12-09T16:35:31.252Z,71.80
2017-12-09T16:37:58.761Z,72.40
2017-12-09T16:40:26.265Z,71.90
2017-12-09T16:42:54.616Z,72.60
2017-12-09T16:45:22.083Z,72.10
2017-12-09T16:47:49.582Z,72.40
2017-12-09T16:50:17.066Z,72.60
2017-12-09T16:52:44.574Z,72.20
2017-12-09T16:55:12.049Z,72.70
2017-12-09T16:57:39.530Z,73.00
2017-12-09T17:00:07.869Z,73.20
2017-12-09T17:02:35.343Z,72.90
2017-12-09T17:05:02.833Z,72.90
2017-12-09T17:07:30.337Z,72.60
2017-12-09T17:09:57.823Z,72.90
2017-12-09T17:12:25.333Z,73.00
2017-12-09T17:14:52.851Z,73.10
2017-12-09T17:17:20.380Z,73.20
2017-12-09T17:19:47.896Z,73.40
2017-12-09T17:22:15.367Z,73.40
2017-12-09T17:24:43.630Z,73.90
2017-12-09T17:27:11.104Z,73.60
2017-12-09T17:29:38.605Z,74.50
2017-12-09T17:32:06.111Z,74.00
2017-12-09T17:34:33.569Z,74.20
2017-12-09T17:37:01.844Z,74.80
2017-12-09T17:39:30.114Z,74.70
2017-12-09T17:41:57.580Z,74.50
2017-12-09T17:44:25.851Z,74.80
2017-12-09T17:46:54.091Z,74.90
2017-12-09T17:49:21.608Z,74.60
2017-12-09T17:51:49.109Z,75.00
2017-12-09T17:54:16.612Z,75.20
2017-12-09T17:56:44.112Z,75.10
2017-12-09T17:59:11.610Z,75.30
2017-12-09T18:01:40.173Z,75.40
2017-12-09T18:04:07.657Z,75.20
2017-12-09T18:06:35.170Z,75.30
2017-12-09T18:09:02.678Z,75.70
2017-12-09T18:11:32.014Z,76.20
2017-12-09T18:13:59.663Z,76.00
2017-12-09T18:16:27.172Z,75.90
2017-12-09T18:18:54.713Z,75.90
2017-12-09T18:21:22.198Z,75.60
2017-12-09T18:23:50.469Z,76.30
2017-12-09T18:26:18.323Z,76.30
2017-12-09T18:28:45.814Z,76.10
2017-12-09T18:31:14.063Z,76.70
2017-12-09T18:33:41.599Z,76.40
2017-12-09T18:36:09.083Z,76.10
2017-12-09T18:38:36.576Z,76.50
2017-12-09T18:41:04.102Z,75.80
2017-12-09T18:43:31.615Z,76.50
2017-12-09T18:45:59.133Z,76.60
2017-12-09T18:48:26.605Z,76.60
2017-12-09T18:50:54.104Z,76.90
2017-12-09T18:53:21.584Z,76.90
2017-12-09T18:55:49.091Z,77.10
2017-12-09T18:58:16.597Z,76.90
2017-12-09T19:00:44.142Z,77.30
2017-12-09T19:03:11.611Z,77.50
2017-12-09T19:05:39.100Z,77.60
2017-12-09T19:08:07.363Z,78.00
2017-12-09T19:10:35.639Z,77.80
2017-12-09T19:13:03.915Z,78.10
2017-12-09T19:15:32.173Z,78.70
2017-12-09T19:17:59.719Z,77.60
2017-12-09T19:20:27.202Z,77.40
2017-12-09T19:22:54.683Z,77.70
2017-12-09T19:25:22.181Z,77.70
2017-12-09T19:27:50.262Z,77.80
2017-12-09T19:30:17.754Z,77.80
2017-12-09T19:32:46.002Z,78.40
2017-12-09T19:35:13.496Z,78.10
2017-12-09T19:37:41.722Z,79.00
2017-12-09T19:40:09.212Z,78.70
2017-12-09T19:42:36.723Z,78.70
2017-12-09T19:45:04.246Z,78.90
2017-12-09T19:47:32.490Z,79.20
2017-12-09T19:49:59.960Z,79.00
2017-12-09T19:52:27.476Z,79.10
2017-12-09T19:54:54.963Z,79.10
2017-12-09T19:57:22.454Z,79.10
2017-12-09T19:59:50.707Z,79.30
2017-12-09T20:02:18.210Z,79.20
2017-12-09T20:04:45.719Z,79.10
2017-12-09T20:07:13.228Z,79.00
2017-12-09T20:09:40.703Z,79.30
2017-12-09T20:12:08.230Z,79.40
2017-12-09T20:14:35.715Z,79.60
2017-12-09T20:17:03.195Z,80.00
2017-12-09T20:19:30.749Z,79.70
2017-12-09T20:21:58.219Z,79.40
2017-12-09T20:24:25.695Z,79.30
2017-12-09T20:26:53.153Z,79.10
2017-12-09T20:29:20.648Z,78.90
2017-12-09T20:31:48.168Z,78.90
2017-12-09T20:34:16.431Z,78.50
2017-12-09T20:36:43.967Z,78.50
2017-12-09T20:39:11.447Z,78.20
2017-12-09T20:41:39.699Z,78.50
2017-12-09T20:44:07.189Z,77.90
2017-12-09T20:46:34.661Z,78.10
2017-12-09T20:49:02.171Z,78.30
2017-12-09T20:51:29.664Z,78.60
2017-12-09T20:53:59.075Z,78.70
2017-12-09T20:56:27.410Z,79.00
2017-12-09T20:58:54.897Z,78.70
2017-12-09T21:01:23.217Z,79.40
2017-12-09T21:03:50.671Z,79.30
2017-12-09T21:06:18.151Z,79.70
2017-12-09T21:08:45.610Z,79.90
2017-12-09T21:11:13.104Z,80.00
2017-12-09T21:13:41.388Z,80.50
2017-12-09T21:16:08.891Z,80.20
2017-12-09T21:18:36.394Z,80.30
2017-12-09T21:21:03.908Z,80.00
2017-12-09T21:23:31.423Z,80.20
2017-12-09T21:25:58.924Z,80.20
2017-12-09T21:28:26.483Z,80.30
2017-12-09T21:30:53.955Z,80.40
2017-12-09T21:33:21.439Z,80.30
2017-12-09T21:35:48.950Z,80.80
2017-12-09T21:38:16.422Z,80.80
2017-12-09T21:40:43.938Z,80.60
2017-12-09T21:43:11.413Z,80.70
2017-12-09T21:45:38.890Z,80.90
2017-12-09T21:48:06.424Z,80.50
2017-12-09T21:50:33.917Z,80.70
2017-12-09T21:53:01.385Z,80.50
2017-12-09T21:55:28.911Z,80.90
2017-12-09T21:57:56.432Z,79.70
2017-12-09T22:00:23.925Z,80.20
2017-12-09T22:02:51.456Z,79.90
2017-12-09T22:05:18.930Z,80.00
2017-12-09T22:07:46.410Z,79.80
2017-12-09T22:10:13.957Z,79.40
2017-12-09T22:12:41.430Z,79.40
2017-12-09T22:15:08.949Z,79.50
2017-12-09T22:17:36.443Z,79.80
2017-12-09T22:20:03.921Z,79.50
2017-12-09T22:22:31.440Z,79.60
2017-12-09T22:24:58.918Z,79.80
2017-12-09T22:27:26.432Z,79.40
2017-12-09T22:29:53.951Z,79.60
2017-12-09T22:32:21.442Z,79.70
2017-12-09T22:34:49.705Z,79.70
2017-12-09T22:37:17.950Z,79.60
2017-12-09T22:39:45.429Z,80.00
2017-12-09T22:42:12.914Z,79.50
2017-12-09T22:44:41.173Z,79.50
2017-12-09T22:47:09.441Z,79.70
2017-12-09T22:49:37.695Z,78.90
2017-12-09T22:52:05.175Z,78.70
2017-12-09T22:54:32.631Z,78.90
2017-12-09T22:57:00.107Z,78.60
2017-12-09T22:59:28.456Z,78.30
2017-12-09T23:01:55.918Z,78.50
2017-12-09T23:04:23.412Z,78.60
2017-12-09T23:06:50.901Z,78.50
2017-12-09T23:09:18.394Z,78.50
2017-12-09T23:11:45.856Z,78.50
2017-12-09T23:14:13.348Z,78.70
2017-12-09T23:16:40.848Z,78.10
2017-12-09T23:19:09.112Z,77.90
2017-12-09T23:21:36.588Z,77.00
2017-12-09T23:24:04.063Z,77.00
2017-12-09T23:26:31.534Z,77.30
2017-12-09T23:28:59.038Z,77.60
2017-12-09T23:31:26.502Z,77.40
2017-12-09T23:33:53.962Z,77.30
2017-12-09T23:36:21.447Z,77.60
2017-12-09T23:38:48.918Z,77.10
2017-12-09T23:41:16.420Z,77.30
2017-12-09T23:43:43.892Z,77.20
2017-12-09T23:46:11.357Z,77.20
2017-12-09T23:48:39.605Z,77.50
2017-12-09T23:51:07.066Z,77.40
2017-12-09T23:53:34.547Z,77.20
2017-12-09T23:56:02.024Z,77.40
2017-12-09T23:58:29.487Z,77.10
